Delavan, MN (56023)

7:48 AM CST on February 14, 2016 (GMT -0600)
Golly Farms 2 | | Change Station
CLOSE
Current Station
Personal Weather Station
Location: Winnebago, MN
Elevation: 1096 ft
Nearby Weather Stations
Active Advisory: Winter Weather Advisory

Elev 1096 ft 43.75 °N, 94.17 °W | Updated 4 minutes ago

Snow
Snow
14.0 °F
Feels Like 1 °F
N
11.0
Wind Variable Wind from SE
Gusts 18.0 mph

Today
High -- | Low -- °F
--% Chance of Precip.
Yesterday
High -- | Low -- °F
Precip. -- in
Pressure 29.95 in
Visibility 0.5 miles
Clouds Overcast 700 ft
Windchill 1 °F
Dew Point 12 °F
Humidity 90%
Rainfall 0.00 in
Snow Depth Not available.
7:16 AM 5:44 PM
Waxing Crescent, 42% visible
METAR KFRM 141335Z AUTO 15017G22KT 1/2SM OVC007 M10/M13 A2995 RMK AO1
Pressure 29.95 in
Visibility 0.5 miles
Clouds Overcast 700 ft
Windchill 1 °F
Dew Point 12 °F
Humidity 90%
Rainfall 0.00 in
Snow Depth Not available.
7:16 AM 5:44 PM
Waxing Crescent, 42% visible
METAR KFRM 141335Z AUTO 15017G22KT 1/2SM OVC007 M10/M13 A2995 RMK AO1

10-Day Weather Forecast

Almanac

Astronomy

Feb. 14, 2016 Rise Set
Actual Time
Civil Twilight
Nautical Twilight
Astronomical Twilight
Moon
Length of Visible Light
Length of Day
Tomorrow will be .
, % of the Moon is Illuminated

Today's Extremes

State Highs State Lows

Community

WunderPhotos

Upload Photos

1,892,793 photos uploaded!

WunderBlog® & News

Nearby

Air Quality

  Air Quality AQ Index Pollutant
Not available.

Snow Depth

Station Depth Elevation

Earthquake Activity

City Distance Mag. Time & Date
Minimum magnitude displayed is 2.5.

Coastal Water Temperatures

Place Temperature

Stations

Nearby Weather Stations

Station Location Temp. Windchill Dew Point Humidity Wind Precip. Elev Updated Type
                   

Watches & Warnings

Winter Weather Advisory
Issued: 3:36 AM CST Feb. 14, 2016 – National Weather Service

... Winter Weather Advisory remains in effect until noon CST
today...

A Winter Weather Advisory remains in effect until noon CST today.

* Expect periods of snow to continue... diminishing around noon.

* Additional snow accumulations of 2 or 3 inches are expected.

* Look for reduced visibilities at times.

* Plan on slippery Road conditions.

Precautionary/preparedness actions...

A Winter Weather Advisory for snow means periods of snow will
cause primarily travel difficulties. Be prepared for snow covered
roads and limited visibilities... and use caution while driving.
The latest Road conditions for the state you are calling from can
be obtained by calling 5 1 1.